Latest Weather Observations for Gelantipy

IDV60801

Issued at 1:05 pm EST Friday 29 August 2014 (issued every 30 minutes, with the page automatically refreshed every 10 minutes)

About weather observations | Map of weather stations | Latest weather observations for VIC | Other Formats
Station Details ID: 084142 Name: GELANTIPY Lat: -37.22 Lon: 148.26 Height: 755.0 m
Data from the previous 72 hours. | See also: Recent months at Gelantipy
Date/Time
EST
Temp
°C
App
Temp
°C
Dew
Point
Rel
Hum
%
Delta-T
°C
Wind Press
QNH
hPa
Press
MSL
hPa
Rain
since 9 am
mm
Dir
 
Spd
km/h
Gust
km/h
Spd
kts
Gust
kts
29/01:00pm 13.0 10.6 5.2 59 3.8 S 7 11 4 6 1027.2 1028.0 0.0
29/12:30pm 12.4 8.8 0.5 44 5.2 S 9 13 5 7 1027.4 1028.3 0.0
29/12:00pm 12.4 9.6 2.0 49 4.7 S 6 9 3 5 1027.7 1028.6 0.0
29/11:30am 11.7 8.6 3.7 58 3.7 S 9 13 5 7 1027.9 1028.8 0.0
29/11:00am 11.8 9.3 4.8 62 3.3 ENE 7 11 4 6 1028.0 1028.9 0.0
29/10:30am 11.6 9.5 5.9 68 2.8 NE 6 11 3 6 1027.9 1028.8 0.0
29/10:00am 10.5 7.5 4.0 64 3.0 NNE 9 13 5 7 1028.0 1028.9 0.0
29/09:30am 10.6 8.4 5.4 70 2.5 NNE 6 7 3 4 1028.2 1029.1 0.0
29/09:00am 9.2 6.7 4.8 74 2.0 NE 7 9 4 5 1028.4 1029.2 0.0
29/08:30am 7.7 4.6 3.7 76 1.8 N 9 11 5 6 1028.2 1029.1 0.0
29/08:00am 6.5 3.5 4.0 84 1.1 N 9 11 5 6 1028.2 1029.1 0.0
29/07:30am 4.2 0.9 2.7 90 0.6 NNE 9 11 5 6 1027.9 1028.8 0.0
29/07:00am 2.6 0.0 1.1 90 0.6 N 4 7 2 4 1027.8 1028.7 0.0
29/06:30am 3.2 -0.8 0.6 83 1.0 N 11 13 6 7 1027.5 1028.4 0.0
29/06:00am 3.6 0.1 1.0 83 1.0 N 9 9 5 5 1027.3 1028.2 0.0
29/05:30am 3.4 0.4 0.8 83 1.0 NNE 6 6 3 3 1027.1 1027.9 0.0
29/05:00am 3.9 -0.1 0.8 80 1.2 N 11 13 6 7 1027.1 1027.9 0.0
29/04:30am 4.3 -0.1 0.5 76 1.5 N 13 15 7 8 1027.0 1027.8 0.0
29/04:00am 4.4 0.1 0.7 77 1.5 N 13 15 7 8 1026.8 1027.7 0.0
29/03:30am 3.5 0.0 1.2 85 0.9 N 9 11 5 6 1026.7 1027.6 0.0
29/03:00am 4.1 0.6 1.5 83 1.1 N 9 9 5 5 1026.8 1027.7 0.0
29/02:30am 4.8 1.0 1.8 81 1.3 N 11 13 6 7 1027.0 1027.8 0.0
29/02:00am 4.2 0.8 1.9 85 1.0 N 9 11 5 6 1027.2 1028.0 0.0
29/01:30am 5.4 1.3 2.2 80 1.4 N 13 17 7 9 1027.4 1028.3 0.0
29/01:00am 5.7 1.5 1.8 76 1.6 N 13 15 7 8 1027.6 1028.5 0.0
29/12:30am 5.0 1.2 1.7 79 1.4 NNE 11 13 6 7 1027.6 1028.5 0.0
29/12:00am 5.6 2.2 2.1 78 1.5 NNE 9 13 5 7 1027.7 1028.6 0.0
 
Date/Time
EST
Temp
°C
App
Temp
°C
Dew
Point
Rel
Hum
%
Delta-T
°C
Wind Press
QNH
hPa
Press
MSL
hPa
Rain
since 9 am
mm
Dir
 
Spd
km/h
Gust
km/h
Spd
kts
Gust
kts
28/11:30pm 4.1 0.7 2.1 87 0.8 NNE 9 11 5 6 1027.7 1028.6 0.0
28/11:00pm 4.8 1.8 1.8 81 1.2 N 7 11 4 6 1027.8 1028.7 0.0
28/10:30pm 4.9 3.2 2.1 82 1.2 CALM 0 0 0 0 1027.8 1028.7 0.0
28/10:00pm 4.4 2.8 2.3 86 0.9 CALM 0 0 0 0 1027.9 1028.8 0.0
28/09:30pm 5.7 4.2 2.9 82 1.2 CALM 0 0 0 0 1028.0 1028.9 0.0
28/09:00pm 5.4 3.8 2.6 82 1.2 CALM 0 0 0 0 1028.0 1028.9 0.0
28/08:30pm 5.1 3.5 2.3 82 1.2 CALM 0 0 0 0 1028.0 1028.9 0.0
28/08:00pm 5.9 4.1 1.4 73 1.9 CALM 0 0 0 0 1027.8 1028.7 0.0
28/07:30pm 6.2 4.4 1.5 72 2.0 CALM 0 0 0 0 1027.7 1028.6 0.0
28/07:00pm 7.4 4.4 0.8 63 2.7 N 6 7 3 4 1027.6 1028.5 0.0
28/06:30pm 7.3 5.6 1.6 67 2.4 CALM 0 0 0 0 1027.5 1028.4 0.0
28/06:00pm 8.6 7.0 2.4 65 2.7 CALM 0 0 0 0 1027.3 1028.2 0.0
28/05:30pm 11.7 8.8 -1.1 41 5.3 W 4 6 2 3 1027.0 1027.8 0.0
28/05:00pm 13.1 10.8 -2.0 35 6.2 CALM 0 0 0 0 1026.7 1027.6 0.0
28/04:30pm 14.0 11.6 -3.3 30 7.0 CALM 0 6 0 3 1026.7 1027.6 0.0
28/04:00pm 13.6 10.4 -3.2 31 6.8 N 4 9 2 5 1026.7 1027.6 0.0
28/03:30pm 13.1 8.8 -5.0 28 7.0 NE 9 13 5 7 1026.7 1027.6 0.0
28/03:00pm 13.2 9.0 -0.8 38 5.9 E 11 15 6 8 1026.7 1027.6 0.0
28/02:30pm 12.8 8.5 0.9 44 5.3 ENE 13 17 7 9 1026.7 1027.6 0.0
28/02:00pm 13.0 9.0 0.7 43 5.4 NE 11 15 6 8 1027.0 1027.8 0.0
28/01:30pm 12.5 9.0 3.5 54 4.2 NE 11 15 6 8 1027.3 1028.2 0.0
28/01:00pm 11.7 7.8 3.5 57 3.8 NE 13 19 7 10 1027.6 1028.5 0.0
28/12:30pm 11.4 6.8 3.9 60 3.5 NNE 17 26 9 14 1027.8 1028.7 0.0
28/12:00pm 11.0 6.0 3.8 61 3.3 NNE 19 24 10 13 1028.2 1029.1 0.0
28/11:30am 10.3 5.0 2.9 60 3.3 NNE 20 26 11 14 1028.6 1029.5 0.0
28/11:00am 9.9 5.1 2.7 61 3.2 NNE 17 24 9 13 1028.8 1029.7 0.0
28/10:30am 9.2 4.9 5.2 76 1.9 NNE 17 20 9 11 1029.1 1030.0 0.0
28/10:00am 8.4 3.7 5.0 79 1.6 NNE 19 22 10 12 1029.1 1030.0 0.0
28/09:30am 7.7 3.7 4.8 82 1.3 NNE 15 19 8 10 1029.2 1030.1 0.0
28/09:00am 7.0 2.6 4.8 86 1.0 NNE 17 20 9 11 1029.3 1030.2 0.0
28/08:30am 5.5 0.5 3.7 88 0.8 NNE 19 22 10 12 1029.2 1030.1 0.0
28/08:00am 5.3 0.7 3.6 89 0.7 NNE 17 20 9 11 1029.1 1030.0 0.0
28/07:30am 4.1 -0.6 3.1 93 0.4 NNE 17 20 9 11 1028.9 1029.8 0.0
28/07:00am 3.0 -1.1 2.3 95 0.3 NNE 13 17 7 9 1028.7 1029.6 0.0
28/06:30am 2.7 -2.2 2.1 96 0.2 NNE 17 19 9 10 1028.5 1029.4 0.0
28/06:00am 3.3 -1.9 2.7 96 0.3 NNE 19 20 10 11 1028.1 1029.0 0.0
28/05:30am 2.8 -1.3 2.1 95 0.3 NNE 13 17 7 9 1028.1 1029.0 0.0
28/05:00am 2.8 -1.7 2.1 95 0.3 N 15 19 8 10 1028.0 1028.9 0.0
28/04:30am 2.4 -0.6 1.7 95 0.3 NNE 7 11 4 6 1027.8 1028.7 0.0
28/04:00am 2.3 -1.1 1.7 96 0.2 NE 9 11 5 6 1027.8 1028.7 0.0
28/03:30am 2.5 -1.3 1.6 94 0.4 NNE 11 13 6 7 1027.7 1028.6 0.0
28/03:00am 3.0 -1.5 2.1 94 0.4 N 15 17 8 9 1027.6 1028.5 0.0
28/02:30am 3.0 -1.1 2.3 95 0.3 NNE 13 17 7 9 1027.7 1028.6 0.0
28/02:00am 3.9 -0.2 2.3 89 0.7 N 13 17 7 9 1027.9 1028.8 0.0
28/01:30am 4.6 -0.2 2.8 88 0.8 NNE 17 22 9 12 1027.8 1028.7 0.0
28/01:00am 4.2 -0.6 2.7 90 0.6 NNE 17 20 9 11 1028.0 1028.9 0.0
28/12:30am 4.2 0.2 3.0 92 0.5 NNE 13 17 7 9 1028.1 1029.0 0.0
28/12:00am 5.1 0.4 3.4 89 0.7 N 17 20 9 11 1028.1 1029.0 0.0
 
Date/Time
EST
Temp
°C
App
Temp
°C
Dew
Point
Rel
Hum
%
Delta-T
°C
Wind Press
QNH
hPa
Press
MSL
hPa
Rain
since 9 am
mm
Dir
 
Spd
km/h
Gust
km/h
Spd
kts
Gust
kts
27/11:30pm 5.6 1.4 3.8 88 0.8 N 15 19 8 10 1028.2 1029.1 0.0
27/11:00pm 5.6 0.9 3.4 86 1.0 NNE 17 20 9 11 1028.1 1029.0 0.0
27/10:30pm 5.2 0.9 3.2 87 0.9 N 15 17 8 9 1028.2 1029.1 0.0
27/10:00pm 4.6 1.9 2.8 88 0.8 NNE 6 7 3 4 1028.2 1029.1 0.0
27/09:30pm 4.7 1.8 2.4 85 1.0 N 7 9 4 5 1028.2 1029.1 0.0
27/09:00pm 4.9 2.3 3.4 90 0.6 N 6 9 3 5 1028.1 1029.0 0.0
27/08:30pm 5.3 3.9 3.8 90 0.7 CALM 0 6 0 3 1028.1 1029.0 0.0
27/08:00pm 5.2 3.0 3.5 89 0.7 ENE 4 9 2 5 1027.9 1028.8 0.0
27/07:30pm 5.7 4.3 3.5 86 1.0 CALM 0 0 0 0 1027.7 1028.6 0.0
27/07:00pm 7.4 6.1 4.2 80 1.4 CALM 0 2 0 1 1027.6 1028.5 0.0
27/06:30pm 8.5 6.0 4.5 76 1.8 W 7 9 4 5 1027.6 1028.5 0.0
27/06:00pm 9.5 7.6 5.1 74 2.1 SSW 4 9 2 5 1027.3 1028.2 0.0
27/05:30pm 11.0 8.2 3.3 59 3.5 N 7 11 4 6 1027.1 1027.9 0.0
27/05:00pm 12.1 8.9 2.8 53 4.2 N 9 11 5 6 1026.8 1027.7 0.0
27/04:30pm 12.9 10.7 3.3 52 4.5 N 4 7 2 4 1026.8 1027.7 0.0
27/04:00pm 12.4 9.0 2.0 49 4.7 NNE 9 13 5 7 1026.7 1027.6 0.0
27/03:30pm 12.7 9.8 2.8 51 4.6 N 7 11 4 6 1026.7 1027.6 0.0
27/03:00pm 12.5 8.9 3.2 53 4.3 NNE 11 17 6 9 1026.7 1027.6 0.0
27/02:30pm 12.5 9.1 4.0 56 4.0 NE 11 15 6 8 1026.8 1027.7 0.0
27/02:00pm 12.7 9.9 5.1 60 3.6 NNE 9 15 5 8 1027.0 1027.8 0.0
27/01:30pm 12.1 8.7 4.1 58 3.8 NNE 11 17 6 9 1027.1 1027.9 0.0
27/01:00pm 11.6 7.4 3.9 59 3.6 NNE 15 20 8 11 1027.1 1027.9 0.0
27/12:30pm 11.4 7.1 5.3 66 2.9 NNE 17 24 9 13 1027.5 1028.4 0.0
27/12:00pm 10.7 6.3 5.0 68 2.7 NNE 17 28 9 15 1027.7 1028.6 0.0
27/11:30am 10.7 6.5 5.5 70 2.5 NE 17 24 9 13 1028.0 1028.9 0.0
27/11:00am 10.1 4.8 5.1 71 2.4 NNE 22 30 12 16 1028.2 1029.1 0.0
27/10:30am 9.5 4.6 4.9 73 2.2 NNE 20 30 11 16 1028.4 1029.2 0.0
27/10:00am 9.1 4.8 5.1 76 1.9 NE 17 24 9 13 1028.4 1029.2 0.0
27/09:30am 8.4 3.9 6.0 85 1.1 NE 19 26 10 14 1028.4 1029.2 0.0
27/09:00am 7.7 3.1 5.7 87 0.9 NE 19 24 10 13 1028.1 1029.0 0.4
27/08:30am 6.9 2.7 5.7 92 0.6 NNE 17 24 9 13 1028.0 1028.9 0.4
27/08:00am 6.1 1.8 5.2 94 0.4 NE 17 24 9 13 1027.9 1028.8 0.4
27/07:30am 5.6 2.3 4.7 94 0.4 NE 11 17 6 9 1027.7 1028.6 0.2
27/07:00am 4.2 0.4 3.8 97 0.2 NNE 13 17 7 9 1027.2 1028.0 0.2
27/06:30am 4.5 0.4 4.1 97 0.2 N 15 17 8 9 1026.8 1027.7 0.2
27/06:00am 4.3 0.5 3.7 96 0.3 NNE 13 15 7 8 1026.7 1027.6 0.2
27/05:30am 4.8 0.6 3.9 94 0.4 NNE 15 20 8 11 1026.6 1027.5 0.2
27/05:00am 4.7 0.9 4.0 95 0.3 N 13 19 7 10 1026.7 1027.6 0.2
27/04:30am 5.6 2.0 4.9 95 0.3 NE 13 19 7 10 1026.6 1027.5 0.2
27/04:00am 5.1 1.0 4.4 95 0.3 N 15 17 8 9 1026.8 1027.7 0.2
27/03:30am 4.9 1.2 4.2 95 0.3 NNE 13 17 7 9 1026.8 1027.7 0.2
27/03:00am 5.5 1.9 4.9 96 0.3 NNE 13 15 7 8 1027.2 1028.0 0.2
27/02:30am 5.4 1.7 4.4 93 0.4 N 13 15 7 8 1027.3 1028.2 0.2
27/02:00am 5.6 2.3 4.6 93 0.4 N 11 13 6 7 1027.4 1028.3 0.2
27/01:30am 5.3 2.4 4.6 95 0.3 N 9 11 5 6 1027.6 1028.5 0.2
27/01:00am 5.9 2.7 5.0 94 0.4 NNE 11 15 6 8 1027.6 1028.5 0.2
27/12:30am 6.2 3.4 5.2 93 0.5 NNE 9 13 5 7 1027.7 1028.6 0.2
27/12:00am 7.2 3.8 6.1 93 0.5 NE 13 17 7 9 1027.8 1028.7 0.2
 
Date/Time
EST
Temp
°C
App
Temp
°C
Dew
Point
Rel
Hum
%
Delta-T
°C
Wind Press
QNH
hPa
Press
MSL
hPa
Rain
since 9 am
mm
Dir
 
Spd
km/h
Gust
km/h
Spd
kts
Gust
kts
26/11:30pm 7.5 3.4 6.1 91 0.7 NE 17 22 9 12 1027.8 1028.7 0.2
26/11:00pm 8.0 5.4 6.3 89 0.8 NE 9 13 5 7 1028.0 1028.9 0.2
26/10:30pm 6.8 4.1 5.7 93 0.5 NNE 9 9 5 5 1028.0 1028.9 0.2
26/10:00pm 6.7 3.5 5.2 90 0.7 NNE 11 15 6 8 1028.1 1029.0 0.2
26/09:30pm 7.4 4.3 5.4 87 0.9 NNE 11 15 6 8 1028.2 1029.1 0.2
26/09:00pm 7.8 4.0 5.8 87 0.9 NNE 15 20 8 11 1028.2 1029.1 0.2
26/08:30pm 7.4 3.8 5.0 85 1.1 NNE 13 15 7 8 1028.0 1028.9 0.2
26/08:00pm 8.3 4.8 5.6 83 1.3 NNE 13 19 7 10 1027.9 1028.8 0.2
26/07:30pm 7.3 4.9 5.4 88 0.9 NNE 7 9 4 5 1027.8 1028.7 0.2
26/07:00pm 9.3 9.0 8.8 97 0.3 CALM 0 0 0 0 1027.6 1028.5 0.2
26/06:30pm 9.6 9.0 8.8 95 0.4 SSW 2 6 1 3 1027.3 1028.2 0.2
26/06:00pm 9.9 8.0 9.0 94 0.5 SW 9 13 5 7 1027.0 1027.8 0.2
26/05:30pm 10.6 8.7 6.6 76 2.0 ESE 6 9 3 5 1026.8 1027.7 0.2
26/05:00pm 11.7 9.7 7.2 74 2.2 SE 7 9 4 5 1026.4 1027.3 0.2
26/04:30pm 12.1 10.1 7.2 72 2.5 SE 7 11 4 6 1026.2 1027.1 0.2
26/04:00pm 12.2 9.8 6.9 70 2.6 ESE 9 11 5 6 1026.1 1026.9 0.2
26/03:30pm 11.8 9.0 7.1 73 2.4 ESE 11 17 6 9 1026.0 1026.8 0.2
26/03:00pm 13.6 10.8 6.9 64 3.4 E 11 19 6 10 1026.1 1026.9 0.2
26/02:30pm 13.2 10.2 5.9 61 3.6 ENE 11 19 6 10 1026.2 1027.1 0.2
26/02:00pm 11.7 9.3 6.8 72 2.4 ESE 9 15 5 8 1026.5 1027.4 0.2
26/01:30pm 11.8 8.8 7.7 76 2.1 SE 13 17 7 9 1026.8 1027.7 0.2

Other Formats:

Comma delimited format used in spreadsheet applications
http://www.bom.gov.au/fwo/IDV60801/IDV60801.94913.axf

JavaScript Object Notation format (JSON) in row-major order
http://www.bom.gov.au/fwo/IDV60801/IDV60801.94913.json